Time;durP1;ratioP1;P1;durP2;ratioP2;P2;SDS_P1;SDS_P2;PMS_P1;PMS_P2;Temp;Humidity;BMP_temperature;BMP_pressure;BME280_temperature;BME280_humidity;BME280_pressure;Samples;Min_cycle;Max_cycle;Signal;HPM_P1;HPM_P2
2022/01/18 00:01:36;;;;;;;11.57;3.65;;;;;10.20;103593.00;;;;5028247;28;20193;-78
2022/01/18 00:04:05;;;;;;;18.70;3.88;;;;;10.20;103609.00;;;;5025944;28;20581;-78
2022/01/18 00:06:33;;;;;;;11.88;3.65;;;;;10.20;103608.00;;;;5027968;28;20204;-78
2022/01/18 00:09:00;;;;;;;9.27;2.88;;;;;10.20;103606.00;;;;5030424;28;20246;-79
2022/01/18 00:11:34;;;;;;;13.52;3.10;;;;;10.20;103610.00;;;;5023417;28;20197;-78
2022/01/18 00:14:07;;;;;;;9.70;3.50;;;;;10.20;103605.00;;;;5010554;28;20208;-78
2022/01/18 00:16:49;;;;;;;13.00;2.65;;;;;10.20;103606.00;;;;5015420;28;20283;-78
2022/01/18 00:19:23;;;;;;;11.98;3.92;;;;;10.20;103608.00;;;;5028802;28;20232;-78
2022/01/18 00:22:05;;;;;;;9.55;3.05;;;;;10.20;103610.00;;;;5010507;28;20221;-79
2022/01/18 00:24:32;;;;;;;16.35;3.22;;;;;10.20;103608.00;;;;5010538;28;20208;-78
2022/01/18 00:26:59;;;;;;;7.20;2.75;;;;;10.20;103609.00;;;;5015176;28;20189;-78
2022/01/18 00:29:28;;;;;;;12.30;3.42;;;;;10.20;103614.00;;;;5025389;28;20200;-79
2022/01/18 00:32:08;;;;;;;11.52;3.30;;;;;10.20;103608.00;;;;5016730;28;20201;-78
2022/01/18 00:34:39;;;;;;;14.43;3.55;;;;;10.20;103603.00;;;;5009510;28;20212;-78
2022/01/18 00:37:25;;;;;;;12.35;3.45;;;;;10.20;103617.00;;;;5017674;28;20200;-79
2022/01/18 00:39:53;;;;;;;7.25;3.33;;;;;10.30;103614.00;;;;5014871;28;20300;-78
2022/01/18 00:42:20;;;;;;;12.30;3.40;;;;;10.20;103619.00;;;;5027038;28;20208;-78
2022/01/18 00:44:48;;;;;;;17.90;3.78;;;;;10.30;103619.00;;;;5028541;28;20199;-78
2022/01/18 00:47:15;;;;;;;15.15;3.65;;;;;10.30;103616.00;;;;5015039;28;20196;-78
2022/01/18 00:49:46;;;;;;;10.88;3.25;;;;;10.30;103618.00;;;;5015778;28;20698;-78
2022/01/18 00:52:17;;;;;;;12.02;3.22;;;;;10.30;103611.00;;;;5010425;28;20197;-78
2022/01/18 00:54:46;;;;;;;11.43;3.47;;;;;10.30;103629.00;;;;5022631;28;20211;-78
2022/01/18 00:57:14;;;;;;;11.13;3.65;;;;;10.30;103627.00;;;;5022216;28;20201;-78
2022/01/18 00:59:44;;;;;;;9.30;3.53;;;;;10.30;103623.00;;;;5026289;28;20718;-78
2022/01/18 01:02:11;;;;;;;13.25;3.67;;;;;10.30;103631.00;;;;5028223;28;20288;-78
2022/01/18 01:04:44;;;;;;;7.38;3.13;;;;;10.30;103620.00;;;;5029095;28;20203;-78
2022/01/18 01:07:12;;;;;;;8.75;3.83;;;;;10.30;103618.00;;;;5028486;28;20586;-78
2022/01/18 01:09:40;;;;;;;6.47;3.08;;;;;10.30;103617.00;;;;5021473;28;20212;-78
2022/01/18 01:12:09;;;;;;;8.75;3.55;;;;;10.30;103624.00;;;;5025048;28;20196;-78
2022/01/18 01:14:36;;;;;;;14.45;3.45;;;;;10.30;103618.00;;;;5022810;28;20212;-78
2022/01/18 01:17:16;;;;;;;8.98;3.58;;;;;10.30;103615.00;;;;5028944;28;20562;-78
2022/01/18 01:31:58;;;;;;;5.32;3.08;;;;;10.30;103614.00;;;;5022230;28;20256;-78
2022/01/18 01:36:41;;;;;;;2.75;1.88;;;;;10.20;103610.00;;;;5020302;28;20732;-79
2022/01/18 01:42:06;;;;;;;3.15;2.00;;;;;10.20;103620.00;;;;5021450;28;20346;-79
2022/01/18 01:44:48;;;;;;;4.35;2.30;;;;;10.20;103618.00;;;;5018613;28;20561;-79
2022/01/18 01:47:20;;;;;;;2.95;1.75;;;;;10.20;103605.00;;;;5026327;28;20257;-79
2022/01/18 01:49:50;;;;;;;3.65;1.77;;;;;10.20;103607.00;;;;5022977;28;21059;-79
2022/01/18 01:52:20;;;;;;;3.83;2.15;;;;;10.10;103609.00;;;;5010668;28;20224;-79
2022/01/18 01:54:50;;;;;;;3.90;1.92;;;;;10.10;103615.00;;;;5008873;28;20207;-78
2022/01/18 01:57:17;;;;;;;3.65;2.00;;;;;10.20;103611.00;;;;5022744;28;20191;-79
2022/01/18 01:59:45;;;;;;;2.90;1.95;;;;;10.20;103615.00;;;;5018627;28;20235;-78
2022/01/18 02:02:12;;;;;;;2.88;1.95;;;;;10.20;103632.00;;;;5021786;28;20200;-79
2022/01/18 02:04:39;;;;;;;3.08;2.00;;;;;10.20;103628.00;;;;5013130;28;20208;-79
2022/01/18 02:07:07;;;;;;;3.58;2.28;;;;;10.20;103624.00;;;;5009166;28;20204;-79
2022/01/18 02:09:34;;;;;;;3.33;1.88;;;;;10.20;103624.00;;;;5022583;28;20201;-79
2022/01/18 02:12:03;;;;;;;4.85;1.65;;;;;10.20;103623.00;;;;5012789;28;20208;-79
2022/01/18 02:14:32;;;;;;;2.40;1.80;;;;;10.20;103623.00;;;;5022857;28;20240;-79
2022/01/18 02:22:31;;;;;;;2.90;2.10;;;;;10.20;103615.00;;;;5024531;28;20215;-79
2022/01/18 02:24:59;;;;;;;2.97;1.95;;;;;10.20;103609.00;;;;5010872;28;21668;-79
2022/01/18 02:27:26;;;;;;;2.72;1.90;;;;;10.20;103603.00;;;;5009457;28;20196;-79
2022/01/18 02:29:53;;;;;;;3.22;2.10;;;;;10.20;103603.00;;;;5023169;28;20211;-79
2022/01/18 02:32:21;;;;;;;2.28;1.70;;;;;10.20;103611.00;;;;5027307;28;20219;-79
2022/01/18 02:34:48;;;;;;;2.95;1.80;;;;;10.20;103615.00;;;;5023994;28;20197;-79
2022/01/18 02:37:15;;;;;;;3.33;2.28;;;;;10.20;103620.00;;;;5027453;28;20196;-79
2022/01/18 02:39:44;;;;;;;4.32;2.50;;;;;10.20;103621.00;;;;5027678;28;20235;-79
2022/01/18 02:42:15;;;;;;;3.15;2.28;;;;;10.20;103621.00;;;;5018560;28;20200;-79
2022/01/18 02:44:43;;;;;;;3.03;1.92;;;;;10.20;103616.00;;;;5026324;28;20198;-79
2022/01/18 02:47:10;;;;;;;8.35;2.65;;;;;10.20;103605.00;;;;5027769;28;20216;-79
2022/01/18 02:49:37;;;;;;;3.75;2.60;;;;;10.20;103606.00;;;;5028147;28;20200;-79
2022/01/18 02:52:06;;;;;;;2.60;1.80;;;;;10.30;103612.00;;;;5023241;28;20584;-80
2022/01/18 02:54:33;;;;;;;3.97;2.22;;;;;10.30;103610.00;;;;5014500;28;20205;-79
2022/01/18 02:57:04;;;;;;;7.13;2.03;;;;;10.30;103603.00;;;;5027957;28;20204;-79
2022/01/18 02:59:35;;;;;;;3.35;1.95;;;;;10.30;103608.00;;;;5019847;28;20721;-79
2022/01/18 03:05:01;;;;;;;2.75;1.98;;;;;10.30;103608.00;;;;5031104;28;20339;-79
2022/01/18 03:07:28;;;;;;;3.28;1.88;;;;;10.30;103610.00;;;;5031614;28;20196;-79
2022/01/18 03:09:56;;;;;;;2.60;1.98;;;;;10.30;103611.00;;;;5025171;28;20201;-79
2022/01/18 03:12:24;;;;;;;2.53;1.80;;;;;10.30;103603.00;;;;5026940;28;20550;-79
2022/01/18 03:14:51;;;;;;;3.15;2.10;;;;;10.30;103611.00;;;;5029847;28;20208;-79
2022/01/18 03:17:19;;;;;;;6.82;2.40;;;;;10.30;103610.00;;;;5030985;28;20211;-79
2022/01/18 03:19:46;;;;;;;2.90;1.67;;;;;10.40;103615.00;;;;5029715;28;20286;-79
2022/01/18 03:22:13;;;;;;;2.97;2.10;;;;;10.40;103621.00;;;;5029670;28;20192;-79
2022/01/18 03:24:55;;;;;;;4.68;1.83;;;;;10.40;103628.00;;;;5011680;28;20204;-79
2022/01/18 03:30:10;;;;;;;3.65;2.08;;;;;10.40;103634.00;;;;5024955;28;20196;-79
2022/01/18 03:32:38;;;;;;;2.25;1.60;;;;;10.40;103641.00;;;;5027188;28;20188;-79
2022/01/18 03:35:08;;;;;;;3.05;2.00;;;;;10.40;103637.00;;;;5030135;28;20207;-79
2022/01/18 03:37:36;;;;;;;3.08;1.63;;;;;10.40;103641.00;;;;5026213;28;20201;-79
2022/01/18 03:40:05;;;;;;;2.90;1.73;;;;;10.40;103643.00;;;;5015798;28;20315;-79
2022/01/18 03:42:39;;;;;;;3.10;2.00;;;;;10.50;103649.00;;;;5024408;28;20192;-79
2022/01/18 03:45:08;;;;;;;5.43;1.92;;;;;10.50;103642.00;;;;5016815;28;20208;-79
2022/01/18 03:47:36;;;;;;;2.58;1.80;;;;;10.50;103639.00;;;;5029811;28;20188;-78
2022/01/18 03:50:06;;;;;;;2.58;1.85;;;;;10.50;103645.00;;;;5030986;28;20545;-79
2022/01/18 03:52:34;;;;;;;2.45;1.67;;;;;10.50;103643.00;;;;5026162;28;20277;-79
2022/01/18 03:55:01;;;;;;;3.35;2.00;;;;;10.50;103640.00;;;;5011029;28;20205;-79
2022/01/18 03:57:28;;;;;;;4.00;2.20;;;;;10.50;103640.00;;;;5011077;28;20220;-79
2022/01/18 03:59:57;;;;;;;3.40;2.20;;;;;10.50;103649.00;;;;5024118;28;20223;-79
2022/01/18 04:02:24;;;;;;;5.07;1.80;;;;;10.60;103647.00;;;;5014446;28;20203;-79
2022/01/18 04:04:53;;;;;;;3.63;2.30;;;;;10.60;103639.00;;;;5018173;28;20209;-79
2022/01/18 04:07:20;;;;;;;4.72;2.13;;;;;10.60;103653.00;;;;5012325;28;20670;-79
2022/01/18 04:09:47;;;;;;;2.40;1.92;;;;;10.60;103649.00;;;;5023685;28;20207;-79
2022/01/18 04:12:15;;;;;;;9.27;1.92;;;;;10.60;103650.00;;;;5011289;28;20204;-79
2022/01/18 04:14:42;;;;;;;2.10;1.50;;;;;10.60;103649.00;;;;5019104;28;20213;-79
2022/01/18 04:17:19;;;;;;;5.03;2.20;;;;;10.60;103660.00;;;;5016201;28;20681;-79
2022/01/18 04:28:08;;;;;;;3.38;1.85;;;;;10.70;103672.00;;;;5010651;28;20564;-79
2022/01/18 04:30:36;;;;;;;3.75;2.33;;;;;10.70;103674.00;;;;5015053;28;20216;-79
2022/01/18 04:33:04;;;;;;;2.78;2.05;;;;;10.70;103673.00;;;;5015303;28;20197;-79
2022/01/18 04:35:32;;;;;;;3.70;2.35;;;;;10.70;103673.00;;;;5015183;28;20211;-79
2022/01/18 04:37:59;;;;;;;4.28;2.00;;;;;10.70;103660.00;;;;5010841;28;20614;-79
2022/01/18 04:40:29;;;;;;;3.63;1.98;;;;;10.80;103656.00;;;;5016159;28;20228;-79
2022/01/18 04:43:07;;;;;;;5.95;2.05;;;;;10.80;103667.00;;;;5022225;28;20189;-79
2022/01/18 04:48:32;;;;;;;5.53;2.45;;;;;10.80;103664.00;;;;5017421;28;20714;-79
2022/01/18 04:51:01;;;;;;;3.00;2.22;;;;;10.80;103660.00;;;;5026324;28;20200;-79
2022/01/18 04:53:32;;;;;;;3.05;2.13;;;;;10.80;103661.00;;;;5010396;28;20197;-79
2022/01/18 04:56:04;;;;;;;3.50;2.42;;;;;10.80;103664.00;;;;5018830;28;20192;-80
2022/01/18 04:58:32;;;;;;;2.40;1.95;;;;;10.80;103669.00;;;;5015024;28;20205;-79
2022/01/18 05:01:01;;;;;;;2.95;2.47;;;;;10.80;103667.00;;;;5009299;28;20228;-79
2022/01/18 05:03:30;;;;;;;2.85;1.95;;;;;10.80;103673.00;;;;5009463;28;20694;-80
2022/01/18 05:06:00;;;;;;;1.55;1.38;;;;;10.90;103661.00;;;;5009351;28;20208;-79
2022/01/18 05:08:28;;;;;;;3.33;1.90;;;;;10.90;103671.00;;;;5015725;28;20204;-80
2022/01/18 05:10:57;;;;;;;3.33;2.13;;;;;10.90;103680.00;;;;5009090;28;20192;-79
2022/01/18 05:19:11;;;;;;;3.40;2.30;;;;;10.90;103668.00;;;;5023280;28;20212;-79
2022/01/18 05:24:21;;;;;;;2.80;2.00;;;;;10.90;103660.00;;;;5013646;28;20716;-80
2022/01/18 05:26:49;;;;;;;1.85;1.63;;;;;10.90;103665.00;;;;5020523;28;20226;-78
2022/01/18 05:29:17;;;;;;;2.63;2.15;;;;;10.90;103664.00;;;;5021888;28;20200;-79
2022/01/18 05:31:45;;;;;;;2.60;1.80;;;;;10.90;103671.00;;;;5021703;28;20193;-79
2022/01/18 05:34:14;;;;;;;1.77;1.58;;;;;10.90;103665.00;;;;5014006;28;20200;-79
2022/01/18 05:36:42;;;;;;;5.28;2.05;;;;;10.90;103660.00;;;;5010675;28;20937;-79
2022/01/18 05:39:10;;;;;;;2.30;1.83;;;;;10.90;103665.00;;;;5026300;28;20651;-79
2022/01/18 05:41:38;;;;;;;2.67;1.70;;;;;10.90;103665.00;;;;5025122;28;20204;-78
2022/01/18 05:44:06;;;;;;;4.13;1.63;;;;;10.90;103659.00;;;;5011794;28;20201;-79
2022/01/18 05:46:34;;;;;;;2.50;1.92;;;;;10.90;103661.00;;;;5008592;28;20195;-78
2022/01/18 05:49:02;;;;;;;5.47;1.83;;;;;10.90;103653.00;;;;5008824;28;20193;-81
2022/01/18 05:51:32;;;;;;;2.80;1.63;;;;;10.90;103665.00;;;;5016080;28;20258;-79
2022/01/18 05:54:00;;;;;;;3.03;2.00;;;;;10.90;103657.00;;;;5021790;28;20212;-78
2022/01/18 05:56:27;;;;;;;3.53;2.00;;;;;11.00;103659.00;;;;5011958;28;20220;-79
2022/01/18 05:58:56;;;;;;;2.13;1.45;;;;;11.00;103659.00;;;;5009160;28;20197;-79
2022/01/18 06:01:27;;;;;;;2.65;1.80;;;;;11.00;103664.00;;;;5012882;28;20231;-79
2022/01/18 06:04:09;;;;;;;3.13;2.03;;;;;11.00;103665.00;;;;5009413;28;20569;-80
2022/01/18 06:06:54;;;;;;;2.65;1.80;;;;;11.00;103665.00;;;;5008504;28;20197;-80
2022/01/18 06:09:23;;;;;;;2.30;1.67;;;;;11.00;103669.00;;;;5015696;28;20330;-80
2022/01/18 06:11:51;;;;;;;2.63;1.65;;;;;11.00;103668.00;;;;5018695;28;20197;-80
2022/01/18 06:14:18;;;;;;;3.25;2.08;;;;;11.00;103672.00;;;;5028665;28;20212;-79
2022/01/18 06:16:46;;;;;;;5.40;2.45;;;;;11.00;103678.00;;;;5021514;28;20614;-80
2022/01/18 06:19:13;;;;;;;2.40;1.63;;;;;11.00;103679.00;;;;5012869;28;20701;-80
2022/01/18 06:21:42;;;;;;;3.08;2.13;;;;;11.00;103671.00;;;;5016013;28;20949;-79
2022/01/18 06:24:11;;;;;;;5.28;1.90;;;;;11.00;103668.00;;;;5008282;28;20196;-79
2022/01/18 06:26:39;;;;;;;3.28;2.17;;;;;11.00;103676.00;;;;5020486;28;20295;-79
2022/01/18 06:29:06;;;;;;;4.28;1.95;;;;;11.10;103660.00;;;;5012017;28;20213;-81
2022/01/18 06:31:34;;;;;;;3.75;2.33;;;;;11.10;103659.00;;;;5012620;28;20284;-79
2022/01/18 06:34:01;;;;;;;2.47;1.73;;;;;11.10;103658.00;;;;5011858;28;20192;-79
2022/01/18 06:36:29;;;;;;;2.63;1.70;;;;;11.10;103650.00;;;;5011086;28;21028;-79
2022/01/18 06:38:57;;;;;;;3.22;1.85;;;;;11.00;103656.00;;;;5011399;28;20201;-79
2022/01/18 06:41:25;;;;;;;2.15;1.48;;;;;11.10;103665.00;;;;5014631;28;20721;-79
2022/01/18 06:43:52;;;;;;;2.90;2.08;;;;;11.10;103676.00;;;;5011208;28;20205;-79
2022/01/18 06:46:19;;;;;;;2.45;1.73;;;;;11.10;103676.00;;;;5027386;28;20617;-79
2022/01/18 06:48:47;;;;;;;1.80;1.30;;;;;11.10;103672.00;;;;5030860;28;20203;-80
2022/01/18 06:51:15;;;;;;;2.08;1.52;;;;;11.10;103678.00;;;;5015372;28;20235;-79
2022/01/18 06:53:47;;;;;;;2.50;1.80;;;;;11.00;103680.00;;;;5012262;28;20220;-79
2022/01/18 06:56:18;;;;;;;2.22;1.70;;;;;11.00;103682.00;;;;5026221;28;20199;-79
2022/01/18 06:58:46;;;;;;;2.30;1.52;;;;;11.00;103681.00;;;;5017366;28;20209;-78
2022/01/18 07:01:14;;;;;;;2.63;1.73;;;;;11.10;103691.00;;;;5014164;28;20223;-80
2022/01/18 07:03:42;;;;;;;5.97;1.45;;;;;11.00;103691.00;;;;5028939;28;20184;-79
2022/01/18 07:06:10;;;;;;;2.33;1.50;;;;;11.00;103694.00;;;;5026625;28;20283;-79
2022/01/18 07:08:37;;;;;;;2.28;1.25;;;;;11.00;103691.00;;;;5028524;28;20208;-79
2022/01/18 07:11:04;;;;;;;2.47;1.42;;;;;11.00;103682.00;;;;5031974;28;20227;-79
2022/01/18 07:13:33;;;;;;;2.03;1.60;;;;;11.00;103689.00;;;;5031950;28;20439;-79
2022/01/18 07:16:01;;;;;;;2.33;1.70;;;;;11.00;103706.00;;;;5026962;28;20212;-79
2022/01/18 07:18:28;;;;;;;2.17;1.50;;;;;11.10;103707.00;;;;5031000;28;20192;-79
2022/01/18 07:20:56;;;;;;;3.72;1.50;;;;;11.10;103700.00;;;;5030900;28;20247;-79
2022/01/18 07:23:23;;;;;;;3.50;1.20;;;;;11.00;103693.00;;;;5030122;28;20203;-79
2022/01/18 07:25:52;;;;;;;2.72;1.30;;;;;11.10;103698.00;;;;5015995;28;20216;-79
2022/01/18 07:28:20;;;;;;;1.60;0.85;;;;;11.10;103695.00;;;;5010803;28;20227;-79
2022/01/18 07:30:50;;;;;;;2.33;0.85;;;;;11.10;103697.00;;;;5011058;28;20200;-79
2022/01/18 07:33:18;;;;;;;2.05;1.17;;;;;11.10;103701.00;;;;5011452;28;20762;-79
2022/01/18 07:35:46;;;;;;;1.83;1.27;;;;;11.10;103701.00;;;;5011193;28;20193;-79
2022/01/18 07:38:17;;;;;;;3.97;1.30;;;;;11.00;103688.00;;;;5011783;28;20216;-79
2022/01/18 07:40:46;;;;;;;2.28;1.40;;;;;11.10;103694.00;;;;5017818;28;20220;-79
2022/01/18 07:43:16;;;;;;;1.63;1.00;;;;;11.10;103701.00;;;;5014352;28;20224;-79
2022/01/18 07:45:44;;;;;;;1.70;0.90;;;;;11.00;103703.00;;;;5010604;28;20201;-79
2022/01/18 07:48:13;;;;;;;2.72;1.73;;;;;11.00;103700.00;;;;5024553;28;20196;-79
2022/01/18 07:50:40;;;;;;;1.85;1.20;;;;;11.00;103702.00;;;;5030494;28;20726;-79
2022/01/18 07:53:08;;;;;;;1.65;1.08;;;;;11.00;103702.00;;;;5031654;28;20200;-79
2022/01/18 07:55:35;;;;;;;2.05;1.20;;;;;11.00;103701.00;;;;5031174;28;20204;-79
2022/01/18 07:58:02;;;;;;;2.83;1.45;;;;;11.00;103708.00;;;;5030372;28;20204;-79
2022/01/18 08:00:29;;;;;;;1.90;1.02;;;;;11.10;103707.00;;;;5022740;28;20227;-80
2022/01/18 08:02:57;;;;;;;2.97;1.63;;;;;11.10;103714.00;;;;5031084;28;20291;-80
2022/01/18 08:05:25;;;;;;;2.05;1.42;;;;;11.00;103713.00;;;;5030426;28;20567;-80
2022/01/18 08:07:53;;;;;;;1.88;1.05;;;;;11.10;103714.00;;;;5030843;28;20236;-80
2022/01/18 08:10:20;;;;;;;1.98;1.25;;;;;11.10;103719.00;;;;5029248;28;20211;-80
2022/01/18 08:12:48;;;;;;;2.00;1.38;;;;;11.10;103719.00;;;;5030425;28;20199;-80
2022/01/18 08:15:20;;;;;;;1.42;1.05;;;;;11.10;103719.00;;;;5028861;28;20698;-80
2022/01/18 08:17:49;;;;;;;2.15;1.20;;;;;11.10;103720.00;;;;5023490;28;20246;-80
2022/01/18 08:20:18;;;;;;;2.35;1.48;;;;;11.10;103719.00;;;;5029442;28;20239;-80
2022/01/18 08:22:47;;;;;;;1.92;1.33;;;;;11.10;103719.00;;;;5029735;28;20224;-80
2022/01/18 08:25:16;;;;;;;2.53;1.77;;;;;11.10;103720.00;;;;5030365;28;20224;-80
2022/01/18 08:27:45;;;;;;;3.72;1.50;;;;;11.10;103715.00;;;;5029555;28;20196;-80
2022/01/18 08:30:16;;;;;;;2.20;1.30;;;;;11.10;103727.00;;;;5030586;28;20239;-80
2022/01/18 08:32:44;;;;;;;3.47;1.30;;;;;11.20;103718.00;;;;5024279;28;20209;-81
2022/01/18 08:35:12;;;;;;;2.00;1.40;;;;;11.20;103724.00;;;;5017598;28;20208;-82
2022/01/18 08:37:40;;;;;;;1.83;1.10;;;;;11.20;103718.00;;;;5010050;28;20208;-82
2022/01/18 08:40:10;;;;;;;1.83;1.23;;;;;11.20;103713.00;;;;5010745;28;20201;-82
2022/01/18 08:42:38;;;;;;;3.78;1.63;;;;;11.20;103713.00;;;;5023335;28;20204;-82
2022/01/18 08:45:07;;;;;;;1.23;0.82;;;;;11.20;103711.00;;;;5010687;28;20197;-83
2022/01/18 08:47:35;;;;;;;3.83;1.20;;;;;11.20;103710.00;;;;5010677;28;20205;-81
2022/01/18 08:50:03;;;;;;;3.85;1.10;;;;;11.30;103717.00;;;;5020688;28;20188;-81
2022/01/18 08:52:30;;;;;;;1.42;0.85;;;;;11.30;103720.00;;;;5027151;28;20192;-81
2022/01/18 08:54:57;;;;;;;16.58;1.10;;;;;11.30;103724.00;;;;5010084;28;20205;-81
2022/01/18 08:57:26;;;;;;;3.22;1.48;;;;;11.30;103733.00;;;;5011215;28;20211;-79
2022/01/18 08:59:53;;;;;;;1.63;1.00;;;;;11.30;103738.00;;;;5025246;28;20753;-80
2022/01/18 09:02:21;;;;;;;1.10;0.77;;;;;11.30;103730.00;;;;5020884;28;20240;-80
2022/01/18 09:04:50;;;;;;;1.67;1.02;;;;;11.30;103733.00;;;;5009636;28;20706;-80
2022/01/18 09:07:20;;;;;;;1.23;0.82;;;;;11.30;103732.00;;;;5014648;28;20765;-81
2022/01/18 09:09:51;;;;;;;1.67;0.98;;;;;11.30;103734.00;;;;5010877;28;20197;-79
2022/01/18 09:12:18;;;;;;;1.45;0.70;;;;;11.30;103736.00;;;;5015532;28;20208;-79
2022/01/18 09:14:47;;;;;;;0.73;0.60;;;;;11.30;103731.00;;;;5023458;28;20219;-80
2022/01/18 09:17:14;;;;;;;1.40;0.80;;;;;11.30;103725.00;;;;5009837;28;20201;-79
2022/01/18 09:19:42;;;;;;;1.80;1.02;;;;;11.30;103728.00;;;;5019281;28;20232;-79
2022/01/18 09:22:09;;;;;;;1.50;0.90;;;;;11.30;103727.00;;;;5018572;28;20229;-79
2022/01/18 09:24:36;;;;;;;1.73;0.80;;;;;11.30;103729.00;;;;5013285;28;20627;-79
2022/01/18 09:27:04;;;;;;;2.92;1.23;;;;;11.30;103733.00;;;;5012114;28;20205;-80
2022/01/18 09:29:33;;;;;;;3.78;1.65;;;;;11.30;103735.00;;;;5009284;28;20197;-79
2022/01/18 09:32:04;;;;;;;4.32;1.55;;;;;11.30;103729.00;;;;5012710;28;20631;-79
2022/01/18 09:34:31;;;;;;;4.22;2.15;;;;;11.40;103727.00;;;;5009013;28;20208;-79
2022/01/18 09:36:58;;;;;;;5.72;2.75;;;;;11.30;103730.00;;;;5009071;28;20201;-79
2022/01/18 09:39:27;;;;;;;5.30;2.90;;;;;11.40;103735.00;;;;5019807;28;20228;-79
2022/01/18 09:41:58;;;;;;;5.78;2.97;;;;;11.40;103734.00;;;;5009338;28;20247;-78
2022/01/18 09:44:25;;;;;;;5.13;2.60;;;;;11.40;103737.00;;;;5008771;28;20213;-79
2022/01/18 09:46:54;;;;;;;5.43;2.95;;;;;11.50;103740.00;;;;5009340;28;20200;-79
2022/01/18 09:49:24;;;;;;;4.82;2.80;;;;;11.50;103730.00;;;;5026558;28;20196;-79
2022/01/18 09:51:52;;;;;;;8.30;2.60;;;;;11.50;103731.00;;;;5014771;28;20195;-80
2022/01/18 09:54:21;;;;;;;6.03;2.55;;;;;11.60;103733.00;;;;5025194;28;20199;-79
2022/01/18 09:56:49;;;;;;;4.13;2.33;;;;;11.60;103737.00;;;;5022282;28;20208;-79
2022/01/18 09:59:16;;;;;;;2.80;1.75;;;;;11.60;103734.00;;;;5013167;28;20201;-80
2022/01/18 10:01:44;;;;;;;4.28;2.05;;;;;11.60;103738.00;;;;5028196;28;20227;-79
2022/01/18 10:04:17;;;;;;;3.70;1.92;;;;;11.60;103737.00;;;;5023654;28;20204;-79
2022/01/18 10:06:47;;;;;;;3.55;1.55;;;;;11.60;103747.00;;;;5024355;28;20262;-81
2022/01/18 10:09:17;;;;;;;3.85;2.15;;;;;11.60;103744.00;;;;5028862;28;20211;-78
2022/01/18 10:12:10;;;;;;;2.13;1.23;;;;;11.50;103745.00;;;;5022624;28;20189;-78
2022/01/18 10:14:40;;;;;;;5.00;1.80;;;;;11.70;103746.00;;;;5021141;28;20220;-79
2022/01/18 10:17:10;;;;;;;5.03;2.10;;;;;11.70;103750.00;;;;5023698;28;20203;-79
2022/01/18 10:19:46;;;;;;;2.80;2.00;;;;;11.70;103746.00;;;;5023448;28;20203;-78
2022/01/18 10:22:18;;;;;;;2.80;1.90;;;;;11.70;103750.00;;;;5012492;28;20220;-79
2022/01/18 10:24:45;;;;;;;2.72;2.03;;;;;11.80;103756.00;;;;5011733;28;20291;-78
2022/01/18 10:27:14;;;;;;;3.30;2.00;;;;;11.80;103755.00;;;;5008854;28;20204;-79
2022/01/18 10:29:45;;;;;;;4.13;2.70;;;;;11.80;103746.00;;;;5007663;28;20212;-79
2022/01/18 10:32:17;;;;;;;3.65;2.38;;;;;11.80;103749.00;;;;5014438;28;20201;-80
2022/01/18 10:37:33;;;;;;;3.38;2.53;;;;;11.80;103748.00;;;;4998707;28;20212;-80
2022/01/18 10:40:03;;;;;;;12.27;2.75;;;;;11.80;103745.00;;;;5007065;28;20197;-80
2022/01/18 10:42:36;;;;;;;4.93;3.08;;;;;11.80;103749.00;;;;5026390;28;20232;-80
2022/01/18 10:45:07;;;;;;;8.85;3.17;;;;;11.80;103742.00;;;;5024955;28;20231;-80
2022/01/18 10:47:35;;;;;;;5.38;2.80;;;;;11.90;103739.00;;;;5027591;28;20603;-80
2022/01/18 10:50:10;;;;;;;6.40;2.97;;;;;11.90;103733.00;;;;5012304;28;20197;-80
2022/01/18 10:52:39;;;;;;;5.30;2.97;;;;;11.90;103732.00;;;;5020567;28;20688;-79
2022/01/18 10:55:09;;;;;;;4.28;2.70;;;;;12.00;103726.00;;;;5026530;28;20204;-79
2022/01/18 10:57:38;;;;;;;8.07;3.00;;;;;12.00;103725.00;;;;5024717;28;20723;-79
2022/01/18 11:00:08;;;;;;;5.18;3.00;;;;;12.00;103730.00;;;;5024015;28;20582;-78
2022/01/18 11:02:38;;;;;;;4.53;2.63;;;;;12.10;103732.00;;;;5017943;28;20243;-80
2022/01/18 11:05:15;;;;;;;4.97;2.80;;;;;12.10;103727.00;;;;5016797;28;20320;-80
2022/01/18 11:07:44;;;;;;;5.95;2.42;;;;;12.20;103724.00;;;;5007797;28;20200;-80
2022/01/18 11:10:12;;;;;;;6.72;2.63;;;;;12.20;103717.00;;;;5011765;28;20212;-80
2022/01/18 11:12:53;;;;;;;6.97;2.03;;;;;12.10;103712.00;;;;5016639;28;20193;-81
2022/01/18 11:15:23;;;;;;;3.38;1.90;;;;;12.20;103719.00;;;;5015697;28;20217;-81
2022/01/18 11:17:57;;;;;;;6.38;1.92;;;;;12.20;103714.00;;;;5027369;28;20197;-80
2022/01/18 11:20:26;;;;;;;2.50;1.45;;;;;12.20;103709.00;;;;5027450;28;20231;-80
2022/01/18 11:22:56;;;;;;;3.05;2.03;;;;;12.30;103709.00;;;;5022508;28;20229;-78
2022/01/18 11:25:23;;;;;;;5.30;1.58;;;;;12.30;103709.00;;;;5012019;28;20204;-78
2022/01/18 11:27:52;;;;;;;3.38;2.33;;;;;12.40;103716.00;;;;5011345;28;20663;-80
2022/01/18 11:30:21;;;;;;;2.40;1.58;;;;;12.40;103711.00;;;;5020289;28;20209;-78
2022/01/18 11:32:50;;;;;;;4.40;2.05;;;;;12.40;103714.00;;;;5026945;28;20204;-79
2022/01/18 11:35:22;;;;;;;3.55;2.20;;;;;12.40;103714.00;;;;5018865;28;21073;-79
2022/01/18 11:38:03;;;;;;;3.13;2.13;;;;;12.40;103716.00;;;;5010991;28;20299;-78
2022/01/18 11:40:44;;;;;;;5.38;1.80;;;;;12.40;103719.00;;;;5019442;28;20215;-78
2022/01/18 11:43:12;;;;;;;4.20;1.80;;;;;12.50;103720.00;;;;5016981;28;20251;-79
2022/01/18 11:45:42;;;;;;;2.75;2.22;;;;;12.50;103711.00;;;;5014965;28;20204;-79
2022/01/18 11:48:13;;;;;;;3.22;2.13;;;;;12.50;103719.00;;;;5017795;28;20196;-79
2022/01/18 11:50:43;;;;;;;2.90;1.70;;;;;12.50;103728.00;;;;5028928;28;20188;-79
2022/01/18 11:53:25;;;;;;;3.63;1.73;;;;;12.40;103719.00;;;;5024492;28;20280;-79
2022/01/18 11:55:55;;;;;;;2.25;1.63;;;;;12.50;103718.00;;;;5011101;28;20261;-79
2022/01/18 11:58:23;;;;;;;2.63;1.70;;;;;12.40;103722.00;;;;5021765;28;20292;-79
2022/01/18 12:00:55;;;;;;;3.55;1.80;;;;;12.40;103720.00;;;;5029706;28;20211;-79
2022/01/18 12:03:26;;;;;;;1.92;1.30;;;;;12.50;103726.00;;;;5013201;28;20679;-79
2022/01/18 12:05:54;;;;;;;3.53;2.00;;;;;12.50;103720.00;;;;5010455;28;20215;-79
2022/01/18 12:08:37;;;;;;;4.72;1.65;;;;;12.40;103716.00;;;;5010276;28;20208;-80
2022/01/18 12:11:07;;;;;;;3.17;2.33;;;;;12.50;103721.00;;;;5013569;28;20629;-79
2022/01/18 12:13:47;;;;;;;4.30;2.60;;;;;12.50;103719.00;;;;5026295;28;20235;-79
2022/01/18 12:16:28;;;;;;;4.57;2.75;;;;;12.50;103713.00;;;;5022100;28;20584;-80
2022/01/18 12:19:04;;;;;;;4.85;2.83;;;;;12.60;103715.00;;;;5029644;28;20199;-80
2022/01/18 12:21:33;;;;;;;9.63;4.28;;;;;12.60;103716.00;;;;5009806;28;20232;-80
2022/01/18 12:24:20;;;;;;;7.05;4.03;;;;;12.50;103721.00;;;;5008722;28;20201;-80
2022/01/18 12:26:58;;;;;;;7.28;4.03;;;;;12.70;103712.00;;;;5013390;28;20200;-80
2022/01/18 12:29:47;;;;;;;9.43;3.53;;;;;12.70;103709.00;;;;5009284;28;20649;-81
2022/01/18 12:32:40;;;;;;;11.50;5.07;;;;;12.70;103702.00;;;;5010663;28;20240;-79
2022/01/18 12:35:26;;;;;;;10.00;5.20;;;;;12.70;103702.00;;;;5017176;28;20239;-80
2022/01/18 12:37:54;;;;;;;12.25;5.60;;;;;12.80;103696.00;;;;5027434;28;20200;-80
2022/01/18 12:40:43;;;;;;;11.38;4.90;;;;;12.70;103688.00;;;;5021939;28;20212;-81
2022/01/18 12:45:59;;;;;;;12.07;5.53;;;;;12.90;103686.00;;;;5009331;28;20220;-80
2022/01/18 12:48:27;;;;;;;13.73;5.93;;;;;12.90;103676.00;;;;5009790;28;20205;-81
2022/01/18 12:50:58;;;;;;;14.98;5.80;;;;;12.90;103676.00;;;;5009055;28;20675;-81
2022/01/18 12:53:29;;;;;;;12.75;6.18;;;;;12.90;103667.00;;;;5009548;28;20219;-81
2022/01/18 12:55:59;;;;;;;13.27;6.70;;;;;13.00;103661.00;;;;5009195;28;20196;-81
2022/01/18 12:58:30;;;;;;;9.55;5.20;;;;;13.00;103661.00;;;;5016667;28;20220;-81
2022/01/18 13:00:59;;;;;;;13.32;5.78;;;;;13.10;103660.00;;;;5027267;28;20861;-81
2022/01/18 13:03:29;;;;;;;11.73;5.82;;;;;13.10;103651.00;;;;5014133;28;20287;-81
2022/01/18 13:05:58;;;;;;;14.05;6.47;;;;;13.20;103651.00;;;;5013323;28;20693;-80
2022/01/18 13:08:30;;;;;;;11.20;5.65;;;;;13.20;103644.00;;;;5017063;28;20196;-81
2022/01/18 13:10:58;;;;;;;11.18;6.32;;;;;13.30;103649.00;;;;5027422;28;20196;-79
2022/01/18 13:13:31;;;;;;;17.67;7.05;;;;;13.30;103642.00;;;;5027053;28;20211;-79